Item Display Status Humidity-temperature Sensor

Elevation Above Sea Level: 3 m

 

Deployed Sensor

  • Serial Number: 60885188
  • NDBC Property Number: 35546
  • Start Date: 2/27/2016 (18:30:00 Z)
  • End Date: 1/26/2017 (17:18:00 Z)
Relative Humidity [%]     6 entries per hour
Showing data from 1/12/2017 (09:00:00 Z) to 1/11/2017 (00:00:01 Z)
Previous Next [ Day | 3-Days | 7-Days ]
First Last
Prev [ Day | 3-Days | 7-Days ] Next
First Last

Start Time:     :
End Time:     :     
Time (in GMT) :00 :50 :40 :30 :20 :10
Previous Next [ Day | 3-Days | 7-Days ]
First Last
Prev [ Day | 3-Days | 7-Days ] Next
First Last


123 => good data
MM => data is determined as missing
-- => data not received/configured
Back to Top Back to Top
1/12/2017 09:00 to 8:10 78.50 78.75 78.41 78.62 78.73 78.86
1/12/2017 08:00 to 7:10 78.75 78.22 78.24 78.35 78.39 78.84
1/12/2017 07:00 to 6:10 78.82 78.45 79.01 78.10 78.24 78.90
1/12/2017 06:00 to 5:10 78.20 78.65 78.10 78.58 78.26 77.95
1/12/2017 05:00 to 4:10 78.86 77.93 78.65 78.39 78.28 78.09
1/12/2017 04:00 to 3:10 78.46 77.80 78.41 78.69 78.24 78.01
1/12/2017 03:00 to 2:10 77.40 78.39 78.07 76.84 77.12 77.23
1/12/2017 02:00 to 1:10 77.03 77.63 77.37 77.14 77.74 77.01
1/12/2017 01:00 to 0:10 76.91 76.61 76.32 76.40 76.76 77.40
1/12/2017 00:00 to 23:10 77.10 77.84 77.46 76.91 76.84 76.59
1/11/2017 23:00 to 22:10 76.93 76.31 76.78 76.29 77.10 76.76
1/11/2017 22:00 to 21:10 76.89 77.14 77.46 77.86 76.99 77.44
1/11/2017 21:00 to 20:10 77.18 78.03 78.18 77.84 77.71 77.88
1/11/2017 20:00 to 19:10 -- -- -- -- -- --
1/11/2017 19:00 to 18:10 76.23 75.62 75.53 75.28 75.09 75.09
1/11/2017 18:00 to 17:10 74.96 74.94 74.47 73.67 73.99 73.63
1/11/2017 17:00 to 16:10 73.50 74.60 74.37 74.16 74.75 75.42
1/11/2017 16:00 to 15:10 75.49 76.13 75.62 75.95 76.78 76.68
1/11/2017 15:00 to 14:10 -- -- -- -- -- --
1/11/2017 14:00 to 13:10 76.02 76.44 75.68 75.26 75.17 76.48
1/11/2017 13:00 to 12:10 75.96 76.00 75.95 76.34 76.44 76.08
1/11/2017 12:00 to 11:10 75.60 76.55 76.55 76.36 76.31 76.91
1/11/2017 11:00 to 10:10 76.74 75.32 76.00 75.60 75.42 78.33
1/11/2017 10:00 to 9:10 76.72 76.74 76.85 77.08 76.61 76.29
1/11/2017 09:00 to 8:10 75.36 76.04 76.23 76.42 76.76 77.56
1/11/2017 08:00 to 7:10 76.57 76.02 76.95 76.42 77.48 77.08
1/11/2017 07:00 to 6:10 77.59 76.95 76.36 76.65 76.42 76.61
1/11/2017 06:00 to 5:10 76.02 76.19 75.89 76.42 76.02 76.31
1/11/2017 05:00 to 4:10 75.93 76.19 76.85 77.74 77.57 75.96
1/11/2017 04:00 to 3:10 77.14 77.78 76.82 76.31 77.08 76.51
1/11/2017 03:00 to 2:10 76.42 76.13 75.38 73.69 75.04 75.38
1/11/2017 02:00 to 1:10 75.66 76.23 76.87 76.00 76.40 76.87
1/11/2017 01:00 to 0:10 75.98 74.43 75.72 76.97 75.40 75.93

 

 

 

Air Temperature [°C]     6 entries per hour
Showing data from 12/31/2016 (08:30:00 Z) to 12/30/2016 (00:00:01 Z)
Previous Next [ Day | 3-Days | 7-Days ]
First Last
Prev [ Day | 3-Days | 7-Days ] Next
First Last

Start Time:     :
End Time:     :     
Time (in GMT) :00 :50 :40 :30 :20 :10
Previous Next [ Day | 3-Days | 7-Days ]
First Last
Prev [ Day | 3-Days | 7-Days ] Next
First Last


123 => good data
MM => data is determined as missing
-- => data not received/configured
Back to Top Back to Top
12/31/2016 09:00 to 8:10 -- -- -- 24.81 24.82 24.80
12/31/2016 08:00 to 7:10 24.83 24.94 24.93 24.99 24.93 24.92
12/31/2016 07:00 to 6:10 24.87 25.00 24.97 24.91 24.95 24.92
12/31/2016 06:00 to 5:10 24.97 24.88 24.92 24.92 24.82 24.86
12/31/2016 05:00 to 4:10 24.87 24.85 24.86 24.81 24.85 24.80
12/31/2016 04:00 to 3:10 24.78 24.93 24.90 24.87 24.94 24.97
12/31/2016 03:00 to 2:10 25.17 25.21 25.31 25.37 25.36 25.43
12/31/2016 02:00 to 1:10 25.47 25.40 25.39 25.32 25.30 25.36
12/31/2016 01:00 to 0:10 25.33 25.26 25.33 25.26 25.26 25.28
12/31/2016 00:00 to 23:10 25.26 25.24 25.26 25.29 25.25 25.19
12/30/2016 23:00 to 22:10 25.21 25.40 25.33 25.33 25.48 25.32
12/30/2016 22:00 to 21:10 25.31 25.27 25.16 25.09 25.17 25.10
12/30/2016 21:00 to 20:10 25.12 25.11 25.08 25.10 25.12 25.18
12/30/2016 20:00 to 19:10 25.05 25.13 25.12 25.15 25.11 25.12
12/30/2016 19:00 to 18:10 25.16 25.15 25.16 25.05 24.93 25.08
12/30/2016 18:00 to 17:10 25.13 24.94 25.14 25.32 25.26 25.33
12/30/2016 17:00 to 16:10 25.22 25.18 25.21 25.07 25.23 25.06
12/30/2016 16:00 to 15:10 25.09 24.88 24.90 24.93 24.79 24.91
12/30/2016 15:00 to 14:10 -- -- -- -- -- --
12/30/2016 14:00 to 13:10 24.76 24.72 24.81 24.74 24.81 24.82
12/30/2016 13:00 to 12:10 24.79 24.74 24.79 24.81 24.80 24.84
12/30/2016 12:00 to 11:10 24.81 24.82 24.80 24.87 24.87 24.84
12/30/2016 11:00 to 10:10 24.85 24.84 24.86 24.78 24.84 24.89
12/30/2016 10:00 to 9:10 24.82 24.86 24.92 24.90 24.93 24.92
12/30/2016 09:00 to 8:10 24.98 24.97 24.96 24.93 24.98 25.04
12/30/2016 08:00 to 7:10 24.93 24.99 25.07 25.00 25.02 25.00
12/30/2016 07:00 to 6:10 24.97 25.04 24.98 25.00 24.96 24.96
12/30/2016 06:00 to 5:10 25.01 25.05 24.97 25.00 25.05 25.06
12/30/2016 05:00 to 4:10 24.97 24.99 25.03 25.01 24.99 25.11
12/30/2016 04:00 to 3:10 25.05 25.00 25.02 25.07 25.09 25.07
12/30/2016 03:00 to 2:10 25.16 25.22 25.23 25.20 25.28 25.33
12/30/2016 02:00 to 1:10 25.37 25.37 25.33 25.37 25.30 25.27
12/30/2016 01:00 to 0:10 25.22 25.26 25.14 25.14 25.18 25.17